createdAt,value
2019-06-20T00:01:04.742Z,20.08
2019-06-20T00:03:34.294Z,20.06
2019-06-20T00:06:04.034Z,20.06
2019-06-20T00:08:33.666Z,19.94
2019-06-20T00:11:03.305Z,20.03
2019-06-20T00:13:32.962Z,19.73
2019-06-20T00:16:03.772Z,19.69
2019-06-20T00:18:33.389Z,19.81
2019-06-20T00:21:03.409Z,19.94
2019-06-20T00:23:33.025Z,19.93
2019-06-20T00:26:02.722Z,19.92
2019-06-20T00:28:32.328Z,20.11
2019-06-20T00:31:02.101Z,20.03
2019-06-20T00:33:31.656Z,19.85
2019-06-20T00:36:01.242Z,19.95
2019-06-20T00:38:30.874Z,19.89
2019-06-20T00:41:00.483Z,19.77
2019-06-20T00:43:30.083Z,19.71
2019-06-20T00:45:59.629Z,19.74
2019-06-20T00:48:29.258Z,19.90
2019-06-20T00:50:58.834Z,19.90
2019-06-20T00:53:28.377Z,19.82
2019-06-20T00:55:57.997Z,19.76
2019-06-20T00:58:27.735Z,19.72
2019-06-20T01:00:57.349Z,19.81
2019-06-20T01:03:26.963Z,19.83
2019-06-20T01:05:56.679Z,19.78
2019-06-20T01:08:26.225Z,19.82
2019-06-20T01:10:55.837Z,19.75
2019-06-20T01:13:33.519Z,19.85
2019-06-20T01:15:56.776Z,19.96
2019-06-20T01:18:26.328Z,20.00
2019-06-20T01:20:55.996Z,19.94
2019-06-20T01:23:25.614Z,19.94
2019-06-20T01:25:55.298Z,19.96
2019-06-20T01:28:25.052Z,19.88
2019-06-20T01:30:54.688Z,20.08
2019-06-20T01:33:24.227Z,20.08
2019-06-20T01:35:53.893Z,20.02
2019-06-20T01:38:23.441Z,19.71
2019-06-20T01:40:52.987Z,19.83
2019-06-20T01:43:22.620Z,19.76
2019-06-20T01:45:53.163Z,19.88
2019-06-20T01:48:22.686Z,19.80
2019-06-20T01:50:52.338Z,19.88
2019-06-20T01:53:21.907Z,19.85
2019-06-20T01:55:51.427Z,19.68
2019-06-20T01:58:21.013Z,19.85
2019-06-20T02:00:52.267Z,19.80
2019-06-20T02:03:22.257Z,19.83
2019-06-20T02:05:51.894Z,19.84
2019-06-20T02:08:21.508Z,19.81
2019-06-20T02:10:51.042Z,19.82
2019-06-20T02:13:20.716Z,19.90
2019-06-20T02:15:50.413Z,20.04
2019-06-20T02:18:20.127Z,19.87
2019-06-20T02:20:55.562Z,19.76
2019-06-20T02:23:25.318Z,19.47
2019-06-20T02:25:55.001Z,19.38
2019-06-20T02:28:25.109Z,19.43
2019-06-20T02:30:54.805Z,19.51
2019-06-20T02:33:24.485Z,19.60
2019-06-20T02:35:54.148Z,19.69
2019-06-20T02:38:23.792Z,19.81
2019-06-20T02:40:53.538Z,19.87
2019-06-20T02:43:24.017Z,19.88
2019-06-20T02:45:53.846Z,19.75
2019-06-20T02:48:23.528Z,19.79
2019-06-20T02:50:53.272Z,19.81
2019-06-20T02:53:23.043Z,19.67
2019-06-20T02:55:52.740Z,19.63
2019-06-20T02:58:22.477Z,19.67
2019-06-20T03:00:59.294Z,19.69
2019-06-20T03:03:29.781Z,19.89
2019-06-20T03:05:59.646Z,19.92
2019-06-20T03:08:30.201Z,19.96
2019-06-20T03:11:00.013Z,19.95
2019-06-20T03:13:30.272Z,19.83
2019-06-20T03:16:00.036Z,19.74
2019-06-20T03:18:29.753Z,19.73
2019-06-20T03:20:59.309Z,19.65
2019-06-20T03:23:28.927Z,19.88
2019-06-20T03:25:58.579Z,20.21
2019-06-20T03:28:28.228Z,20.25
2019-06-20T03:30:57.917Z,20.16
2019-06-20T03:33:28.748Z,20.32
2019-06-20T03:35:58.498Z,20.58
2019-06-20T03:38:28.119Z,20.59
2019-06-20T03:40:57.873Z,20.56
2019-06-20T03:43:27.424Z,20.72
2019-06-20T03:45:56.972Z,20.77
2019-06-20T03:48:26.629Z,20.78
2019-06-20T03:50:56.291Z,20.82
2019-06-20T03:53:25.874Z,20.95
2019-06-20T03:55:55.547Z,21.14
2019-06-20T03:58:25.097Z,21.40
2019-06-20T04:00:54.749Z,21.96
2019-06-20T04:03:24.399Z,22.42
2019-06-20T04:05:53.942Z,22.74
2019-06-20T04:08:23.484Z,23.01
2019-06-20T04:10:53.091Z,23.00
2019-06-20T04:13:22.727Z,23.54
2019-06-20T04:15:52.278Z,23.99
2019-06-20T04:18:21.861Z,24.23
2019-06-20T04:20:51.420Z,24.84
2019-06-20T04:23:21.040Z,25.25
2019-06-20T04:25:50.694Z,25.32
2019-06-20T04:28:20.239Z,25.60
2019-06-20T04:30:49.860Z,25.50
2019-06-20T04:33:19.471Z,25.58
2019-06-20T04:35:49.210Z,26.03
2019-06-20T04:38:18.969Z,26.66
2019-06-20T04:40:48.693Z,26.68
2019-06-20T04:43:18.243Z,26.64
2019-06-20T04:45:52.240Z,26.96
2019-06-20T04:48:21.831Z,27.10
2019-06-20T04:50:51.448Z,27.08
2019-06-20T04:53:21.071Z,27.48
2019-06-20T04:55:50.666Z,27.63
2019-06-20T04:58:20.211Z,27.48
2019-06-20T05:00:49.773Z,27.80
2019-06-20T05:03:19.462Z,27.95
2019-06-20T05:05:49.195Z,27.77
2019-06-20T05:08:18.811Z,27.59
2019-06-20T05:10:48.549Z,28.19
2019-06-20T05:13:18.096Z,28.32
2019-06-20T05:15:52.491Z,28.56
2019-06-20T05:18:19.018Z,28.49
2019-06-20T05:20:48.764Z,27.34
2019-06-20T05:23:18.443Z,26.98
2019-06-20T05:25:48.462Z,26.47
2019-06-20T05:28:19.498Z,26.34
2019-06-20T05:30:49.171Z,26.20
2019-06-20T05:33:18.968Z,26.39
2019-06-20T05:35:50.783Z,26.53
2019-06-20T05:38:20.502Z,26.72
2019-06-20T05:40:51.773Z,26.86
2019-06-20T05:43:21.691Z,27.28
2019-06-20T05:45:51.308Z,27.09
2019-06-20T05:48:20.978Z,27.04
2019-06-20T05:50:51.520Z,26.61
2019-06-20T05:53:21.214Z,26.53
2019-06-20T05:55:51.630Z,26.04
2019-06-20T05:58:21.761Z,25.99
2019-06-20T06:00:52.429Z,25.85
2019-06-20T06:03:23.408Z,25.76
2019-06-20T06:05:53.319Z,25.53
2019-06-20T06:08:23.127Z,25.89
2019-06-20T06:10:52.958Z,25.93
2019-06-20T06:13:22.787Z,25.62
2019-06-20T06:15:52.343Z,25.73
2019-06-20T06:18:22.466Z,25.89
2019-06-20T06:20:52.481Z,25.80
2019-06-20T06:23:22.966Z,25.95
2019-06-20T06:25:52.616Z,27.01
2019-06-20T06:28:22.256Z,27.53
2019-06-20T06:30:51.999Z,27.84
2019-06-20T06:33:21.741Z,28.24
2019-06-20T06:35:51.554Z,28.58
2019-06-20T06:38:22.228Z,29.06
2019-06-20T06:40:52.204Z,29.10
2019-06-20T06:43:23.233Z,29.07
2019-06-20T06:45:53.457Z,29.06
2019-06-20T06:48:23.615Z,29.34
2019-06-20T06:50:54.467Z,29.13
2019-06-20T06:53:24.999Z,28.99
2019-06-20T06:55:56.058Z,29.29
2019-06-20T06:58:25.919Z,29.06
2019-06-20T07:00:55.589Z,29.57
2019-06-20T07:03:25.586Z,29.62
2019-06-20T07:05:55.511Z,29.89
2019-06-20T07:08:25.359Z,29.79
2019-06-20T07:10:55.456Z,30.02
2019-06-20T07:13:25.423Z,30.10
2019-06-20T07:15:55.320Z,30.34
2019-06-20T07:18:25.091Z,30.33
2019-06-20T07:20:55.308Z,30.34
2019-06-20T07:23:25.498Z,29.73
2019-06-20T07:25:55.495Z,30.25
2019-06-20T07:28:25.393Z,30.34
2019-06-20T07:30:55.115Z,30.22
2019-06-20T07:33:24.780Z,30.62
2019-06-20T07:35:54.637Z,30.49
2019-06-20T07:38:24.390Z,30.27
2019-06-20T07:40:58.936Z,30.37
2019-06-20T07:43:29.191Z,30.59
2019-06-20T07:46:02.985Z,30.41
2019-06-20T07:48:31.762Z,30.36
2019-06-20T07:51:04.889Z,29.43
2019-06-20T07:53:35.608Z,29.51
2019-06-20T07:56:09.326Z,29.37
2019-06-20T07:58:37.824Z,29.57
2019-06-20T08:01:08.790Z,29.55
2019-06-20T08:03:39.896Z,29.61
2019-06-20T08:06:12.866Z,29.71
2019-06-20T08:08:44.199Z,29.84
2019-06-20T08:11:14.867Z,29.23
2019-06-20T08:13:45.509Z,29.50
2019-06-20T08:16:16.847Z,29.65
2019-06-20T08:18:46.873Z,30.43
2019-06-20T08:21:16.726Z,30.56
2019-06-20T08:23:46.694Z,30.18
2019-06-20T08:26:16.559Z,30.11
2019-06-20T08:28:46.260Z,30.58
2019-06-20T08:31:16.192Z,30.67
2019-06-20T08:33:46.039Z,30.64
2019-06-20T08:36:16.069Z,30.31
2019-06-20T08:38:45.961Z,30.09
2019-06-20T08:41:15.809Z,30.60
2019-06-20T08:43:46.149Z,31.11
2019-06-20T08:46:17.502Z,31.52
2019-06-20T08:48:47.313Z,31.62
2019-06-20T08:51:17.097Z,31.23
2019-06-20T08:53:47.911Z,31.02
2019-06-20T08:56:17.686Z,31.29
2019-06-20T08:58:47.720Z,31.42
2019-06-20T09:01:17.717Z,31.79
2019-06-20T09:03:47.466Z,31.69
2019-06-20T09:06:17.221Z,31.71
2019-06-20T09:08:46.916Z,31.77
2019-06-20T09:11:16.583Z,31.81
2019-06-20T09:13:46.401Z,32.25
2019-06-20T09:16:24.385Z,32.10
2019-06-20T09:18:47.488Z,32.39
2019-06-20T09:21:17.266Z,31.98
2019-06-20T09:23:46.990Z,32.01
2019-06-20T09:26:16.795Z,32.00
2019-06-20T09:28:46.436Z,31.42
2019-06-20T09:31:16.089Z,31.90
2019-06-20T09:33:45.863Z,32.53
2019-06-20T09:36:15.438Z,32.83
2019-06-20T09:38:45.113Z,32.60
2019-06-20T09:41:14.751Z,32.65
2019-06-20T09:43:44.811Z,33.07
2019-06-20T09:46:14.499Z,33.19
2019-06-20T09:48:44.470Z,32.37
2019-06-20T09:51:14.164Z,32.92
2019-06-20T09:53:44.268Z,33.40
2019-06-20T09:56:14.305Z,33.19
2019-06-20T09:58:44.111Z,33.80
2019-06-20T10:01:13.896Z,33.83
2019-06-20T10:03:43.572Z,33.96
2019-06-20T10:06:14.691Z,33.58
2019-06-20T10:08:46.581Z,33.16
2019-06-20T10:11:16.102Z,33.39
2019-06-20T10:13:46.857Z,33.26
2019-06-20T10:16:17.310Z,33.01
2019-06-20T10:18:48.444Z,33.15
2019-06-20T10:21:18.457Z,33.39
2019-06-20T10:23:49.675Z,33.50
2019-06-20T10:26:19.659Z,33.40
2019-06-20T10:28:49.432Z,32.93
2019-06-20T10:31:19.061Z,32.81
2019-06-20T10:33:50.851Z,33.16
2019-06-20T10:36:20.611Z,32.78
2019-06-20T10:38:50.427Z,32.98
2019-06-20T10:41:20.200Z,32.99
2019-06-20T10:43:49.861Z,33.12
2019-06-20T10:46:19.656Z,33.17
2019-06-20T10:48:50.090Z,33.02
2019-06-20T10:51:32.982Z,33.49
2019-06-20T10:54:03.121Z,33.63
2019-06-20T10:56:32.814Z,33.51
2019-06-20T10:59:02.579Z,33.06
2019-06-20T11:01:32.391Z,32.64
2019-06-20T11:04:02.278Z,33.02
2019-06-20T11:06:31.962Z,33.15
2019-06-20T11:09:01.634Z,32.41
2019-06-20T11:11:31.393Z,32.26
2019-06-20T11:14:00.949Z,31.94
2019-06-20T11:16:30.777Z,32.19
2019-06-20T11:19:00.520Z,32.40
2019-06-20T11:21:30.181Z,32.58
2019-06-20T11:24:00.124Z,32.70
2019-06-20T11:26:29.736Z,32.05
2019-06-20T11:28:59.338Z,32.17
2019-06-20T11:31:29.143Z,32.18
2019-06-20T11:33:59.165Z,32.05
2019-06-20T11:36:28.926Z,32.04
2019-06-20T11:39:00.989Z,32.05
2019-06-20T11:41:30.716Z,32.37
2019-06-20T11:44:00.409Z,33.08
2019-06-20T11:46:35.367Z,33.31
2019-06-20T11:49:06.003Z,33.32
2019-06-20T11:51:36.020Z,33.55
2019-06-20T11:54:05.990Z,33.57
2019-06-20T11:56:35.881Z,33.82
2019-06-20T11:59:05.602Z,33.19
2019-06-20T12:01:35.539Z,33.49
2019-06-20T12:04:05.345Z,33.93
2019-06-20T12:06:35.929Z,33.50
2019-06-20T12:09:08.030Z,33.31
2019-06-20T12:11:39.043Z,33.49
2019-06-20T12:14:09.530Z,33.51
2019-06-20T12:16:40.891Z,33.48
2019-06-20T12:19:10.784Z,34.03
2019-06-20T12:21:41.006Z,33.88
2019-06-20T12:24:12.871Z,33.75
2019-06-20T12:26:42.879Z,33.67
2019-06-20T12:29:12.711Z,33.27
2019-06-20T12:31:45.866Z,32.98
2019-06-20T12:34:16.841Z,32.84
2019-06-20T12:36:46.895Z,32.65
2019-06-20T12:39:16.926Z,32.24
2019-06-20T12:41:47.568Z,32.43
2019-06-20T12:44:17.555Z,32.31
2019-06-20T12:46:49.014Z,32.34
2019-06-20T12:49:19.151Z,32.53
2019-06-20T12:51:49.099Z,32.03
2019-06-20T12:54:19.358Z,32.33
2019-06-20T12:56:49.226Z,32.44
2019-06-20T12:59:19.940Z,32.46
2019-06-20T13:01:51.128Z,32.18
2019-06-20T13:04:21.174Z,32.15
2019-06-20T13:06:52.315Z,32.37
2019-06-20T13:09:22.353Z,31.95
2019-06-20T13:11:52.252Z,32.11
2019-06-20T13:14:22.078Z,32.21
2019-06-20T13:16:51.946Z,32.24
2019-06-20T13:19:21.773Z,32.29
2019-06-20T13:21:51.921Z,31.98
2019-06-20T13:24:21.599Z,32.23
2019-06-20T13:26:51.222Z,32.19
2019-06-20T13:29:21.082Z,32.36
2019-06-20T13:32:01.966Z,32.06
2019-06-20T13:34:22.612Z,32.18
2019-06-20T13:36:52.323Z,32.11
2019-06-20T13:39:22.699Z,31.95
2019-06-20T13:41:52.648Z,32.04
2019-06-20T13:44:22.329Z,31.81
2019-06-20T13:46:52.151Z,31.29
2019-06-20T13:49:21.919Z,31.23
2019-06-20T13:51:51.609Z,31.15
2019-06-20T13:54:21.441Z,30.62
2019-06-20T13:56:51.789Z,30.63
2019-06-20T13:59:22.494Z,30.77
2019-06-20T14:02:05.852Z,30.44
2019-06-20T14:04:23.652Z,29.87
2019-06-20T14:06:53.826Z,29.48
2019-06-20T14:09:24.062Z,29.17
2019-06-20T14:11:54.213Z,29.09
2019-06-20T14:14:24.699Z,29.19
2019-06-20T14:16:54.563Z,29.20
2019-06-20T14:19:24.262Z,29.29
2019-06-20T14:21:54.373Z,29.43
2019-06-20T14:24:24.195Z,29.23
2019-06-20T14:26:54.585Z,29.32
2019-06-20T14:29:24.595Z,29.45
2019-06-20T14:31:56.005Z,29.34
2019-06-20T14:34:25.729Z,29.38
2019-06-20T14:36:55.553Z,29.23
2019-06-20T14:39:25.250Z,29.19
2019-06-20T14:41:55.232Z,29.26
2019-06-20T14:44:24.987Z,29.09
2019-06-20T14:46:54.664Z,29.03
2019-06-20T14:49:24.418Z,29.11
2019-06-20T14:51:55.753Z,29.16
2019-06-20T14:54:25.486Z,29.03
2019-06-20T14:56:58.042Z,28.79
2019-06-20T14:59:27.456Z,28.95
2019-06-20T15:01:57.191Z,28.97
2019-06-20T15:04:26.734Z,29.04
2019-06-20T15:06:56.574Z,29.11
2019-06-20T15:09:26.483Z,29.19
2019-06-20T15:11:56.100Z,28.86
2019-06-20T15:14:25.727Z,29.01
2019-06-20T15:16:57.008Z,28.85
2019-06-20T15:19:26.642Z,28.84
2019-06-20T15:21:56.593Z,28.77
2019-06-20T15:24:26.471Z,28.98
2019-06-20T15:26:56.498Z,28.83
2019-06-20T15:29:26.369Z,29.00
2019-06-20T15:31:56.962Z,28.84
2019-06-20T15:34:26.940Z,28.84
2019-06-20T15:36:57.780Z,28.69
2019-06-20T15:39:27.553Z,28.81
2019-06-20T15:41:58.223Z,28.75
2019-06-20T15:44:27.979Z,28.75
2019-06-20T15:46:57.707Z,28.84
2019-06-20T15:49:27.326Z,28.98
2019-06-20T15:51:59.127Z,29.02
2019-06-20T15:54:28.482Z,28.99
2019-06-20T15:56:58.359Z,28.64
2019-06-20T15:59:27.906Z,28.81
2019-06-20T16:01:58.445Z,28.82
2019-06-20T16:04:28.568Z,28.95
2019-06-20T16:06:58.571Z,29.09
2019-06-20T16:09:28.256Z,29.01
2019-06-20T16:11:58.158Z,28.94
2019-06-20T16:14:27.710Z,28.81
2019-06-20T16:16:57.286Z,29.03
2019-06-20T16:19:26.928Z,29.35
2019-06-20T16:21:56.470Z,29.53
2019-06-20T16:24:26.182Z,29.46
2019-06-20T16:26:55.872Z,29.40
2019-06-20T16:29:25.472Z,29.41
2019-06-20T16:31:55.300Z,29.71
2019-06-20T16:34:24.930Z,29.66
2019-06-20T16:37:09.247Z,29.72
2019-06-20T16:39:26.338Z,29.64
2019-06-20T16:41:56.095Z,29.76
2019-06-20T16:44:25.900Z,29.59
2019-06-20T16:46:55.725Z,29.56
2019-06-20T16:49:25.652Z,29.64
2019-06-20T16:51:55.354Z,29.66
2019-06-20T16:54:26.385Z,29.58
2019-06-20T16:56:56.805Z,29.42
2019-06-20T16:59:26.554Z,29.26
2019-06-20T17:01:56.727Z,29.37
2019-06-20T17:04:26.693Z,29.00
2019-06-20T17:06:56.509Z,28.99
2019-06-20T17:09:26.534Z,28.97
2019-06-20T17:11:56.825Z,28.94
2019-06-20T17:14:26.479Z,29.04
2019-06-20T17:16:56.209Z,29.20
2019-06-20T17:19:25.745Z,29.15
2019-06-20T17:21:55.707Z,28.98
2019-06-20T17:24:25.392Z,28.80
2019-06-20T17:26:55.295Z,28.87
2019-06-20T17:29:24.980Z,28.89
2019-06-20T17:31:57.359Z,28.63
2019-06-20T17:34:26.050Z,28.65
2019-06-20T17:36:55.743Z,28.47
2019-06-20T17:39:25.565Z,28.49
2019-06-20T17:41:55.852Z,28.42
2019-06-20T17:44:27.568Z,28.25
2019-06-20T17:46:57.530Z,28.22
2019-06-20T17:49:27.237Z,28.22
2019-06-20T17:51:57.006Z,28.18
2019-06-20T17:54:29.165Z,27.85
2019-06-20T17:56:59.125Z,27.86
2019-06-20T17:59:29.306Z,27.93
2019-06-20T18:02:00.183Z,27.77
2019-06-20T18:04:29.991Z,27.70
2019-06-20T18:07:03.123Z,27.46
2019-06-20T18:09:33.071Z,27.06
2019-06-20T18:12:04.696Z,27.08
2019-06-20T18:14:34.616Z,26.91
2019-06-20T18:17:04.790Z,26.69
2019-06-20T18:19:34.479Z,26.43
2019-06-20T18:22:04.168Z,26.16
2019-06-20T18:24:33.753Z,26.27
2019-06-20T18:27:03.521Z,26.27
2019-06-20T18:29:33.827Z,26.28
2019-06-20T18:32:03.907Z,25.95
2019-06-20T18:34:34.032Z,25.94
2019-06-20T18:37:04.218Z,25.68
2019-06-20T18:39:34.531Z,25.53
2019-06-20T18:42:04.311Z,25.66
2019-06-20T18:44:34.145Z,25.64
2019-06-20T18:47:03.998Z,25.50
2019-06-20T18:49:33.864Z,25.66
2019-06-20T18:52:03.912Z,25.48
2019-06-20T18:54:33.706Z,25.37
2019-06-20T18:57:03.750Z,24.81
2019-06-20T18:59:34.563Z,24.82
2019-06-20T19:02:04.511Z,24.67
2019-06-20T19:04:46.466Z,24.72
2019-06-20T19:07:06.781Z,24.54
2019-06-20T19:09:36.602Z,24.47
2019-06-20T19:12:06.377Z,24.27
2019-06-20T19:14:36.344Z,24.37
2019-06-20T19:17:06.139Z,24.21
2019-06-20T19:19:35.832Z,24.23
2019-06-20T19:22:05.617Z,23.96
2019-06-20T19:24:35.415Z,23.96
2019-06-20T19:27:05.266Z,23.81
2019-06-20T19:29:35.059Z,23.80
2019-06-20T19:32:05.645Z,23.55
2019-06-20T19:34:35.257Z,23.59
2019-06-20T19:37:05.130Z,23.54
2019-06-20T19:39:35.337Z,23.40
2019-06-20T19:42:05.295Z,23.31
2019-06-20T19:44:37.224Z,23.22
2019-06-20T19:47:08.025Z,23.23
2019-06-20T19:49:37.948Z,22.91
2019-06-20T19:52:08.232Z,22.82
2019-06-20T19:54:38.089Z,22.75
2019-06-20T19:57:07.893Z,22.53
2019-06-20T19:59:38.066Z,22.26
2019-06-20T20:02:08.033Z,22.26
2019-06-20T20:04:38.214Z,22.03
2019-06-20T20:07:07.966Z,22.02
2019-06-20T20:09:38.339Z,22.19
2019-06-20T20:12:09.349Z,22.00
2019-06-20T20:14:39.554Z,22.12
2019-06-20T20:17:09.444Z,22.04
2019-06-20T20:19:39.304Z,21.98
2019-06-20T20:22:09.249Z,21.66
2019-06-20T20:24:40.107Z,21.87
2019-06-20T20:27:10.147Z,21.95
2019-06-20T20:29:40.152Z,21.66
2019-06-20T20:32:10.346Z,21.72
2019-06-20T20:34:40.464Z,21.72
2019-06-20T20:37:10.315Z,21.66
2019-06-20T20:39:40.598Z,21.60
2019-06-20T20:42:10.481Z,21.75
2019-06-20T20:44:41.695Z,21.94
2019-06-20T20:47:11.719Z,21.30
2019-06-20T20:49:41.791Z,21.57
2019-06-20T20:52:11.580Z,21.71
2019-06-20T20:54:41.782Z,21.89
2019-06-20T20:57:11.521Z,21.89
2019-06-20T20:59:41.664Z,21.39
2019-06-20T21:02:11.624Z,21.67
2019-06-20T21:04:41.839Z,21.61
2019-06-20T21:07:13.509Z,21.45
2019-06-20T21:09:43.874Z,21.49
2019-06-20T21:12:13.638Z,21.71
2019-06-20T21:14:43.611Z,21.91
2019-06-20T21:17:13.415Z,21.72
2019-06-20T21:19:43.373Z,21.69
2019-06-20T21:22:13.177Z,21.80
2019-06-20T21:24:42.967Z,21.90
2019-06-20T21:27:12.921Z,21.61
2019-06-20T21:29:42.905Z,21.58
2019-06-20T21:32:13.082Z,21.75
2019-06-20T21:34:42.785Z,21.55
2019-06-20T21:37:12.620Z,21.52
2019-06-20T21:39:42.518Z,21.52
2019-06-20T21:42:12.359Z,21.32
2019-06-20T21:44:41.983Z,21.18
2019-06-20T21:47:11.900Z,21.05
2019-06-20T21:49:41.520Z,20.99
2019-06-20T21:52:11.173Z,20.96
2019-06-20T21:54:40.798Z,20.74
2019-06-20T21:57:10.632Z,20.57
2019-06-20T21:59:40.358Z,20.63
2019-06-20T22:02:10.378Z,20.70
2019-06-20T22:04:53.798Z,20.42
2019-06-20T22:07:11.650Z,20.49
2019-06-20T22:09:41.554Z,20.74
2019-06-20T22:12:11.225Z,20.75
2019-06-20T22:14:40.938Z,20.46
2019-06-20T22:17:10.776Z,19.94
2019-06-20T22:19:40.398Z,19.81
2019-06-20T22:22:10.139Z,19.67
2019-06-20T22:24:40.045Z,19.83
2019-06-20T22:27:09.825Z,19.71
2019-06-20T22:29:39.601Z,19.69
2019-06-20T22:32:10.406Z,19.86
2019-06-20T22:34:40.129Z,20.09
2019-06-20T22:37:09.726Z,20.01
2019-06-20T22:39:39.359Z,19.84
2019-06-20T22:42:09.047Z,20.16
2019-06-20T22:44:38.595Z,20.24
2019-06-20T22:47:08.402Z,20.19
2019-06-20T22:49:37.960Z,20.03
2019-06-20T22:52:07.577Z,19.96
2019-06-20T22:54:37.241Z,19.77
2019-06-20T22:57:06.898Z,19.51
2019-06-20T22:59:36.437Z,19.83
2019-06-20T23:02:06.180Z,19.77
2019-06-20T23:04:35.779Z,19.46
2019-06-20T23:07:05.466Z,19.70
2019-06-20T23:09:35.113Z,19.44
2019-06-20T23:12:04.875Z,19.48
2019-06-20T23:14:34.448Z,19.20
2019-06-20T23:17:04.185Z,19.08
2019-06-20T23:19:33.752Z,18.60
2019-06-20T23:22:03.374Z,18.30
2019-06-20T23:24:33.104Z,18.19
2019-06-20T23:27:02.820Z,18.14
2019-06-20T23:29:32.458Z,18.23
2019-06-20T23:32:02.170Z,18.15
2019-06-20T23:34:31.782Z,18.38
2019-06-20T23:37:12.345Z,18.31
2019-06-20T23:39:32.728Z,18.34
2019-06-20T23:42:02.579Z,18.23
2019-06-20T23:44:32.111Z,18.27
2019-06-20T23:47:01.732Z,18.26
2019-06-20T23:49:31.269Z,17.92
2019-06-20T23:52:18.321Z,17.79
2019-06-20T23:54:47.917Z,17.98
2019-06-20T23:57:17.602Z,18.07
2019-06-20T23:59:47.177Z,18.23
